sensor_id;sensor_type;location;lat;lon;timestamp;P1;durP1;ratioP1;P2;durP2;ratioP2
48789;SDS011;41718;51.980;5.734;2024-03-02T00:03:33;2.80;;;1.55;;
48789;SDS011;41718;51.980;5.734;2024-03-02T00:08:40;2.22;;;1.55;;
48789;SDS011;41718;51.980;5.734;2024-03-02T00:14:03;2.45;;;1.13;;
48789;SDS011;41718;51.980;5.734;2024-03-02T00:19:10;2.40;;;1.33;;
48789;SDS011;41718;51.980;5.734;2024-03-02T00:24:32;2.17;;;0.95;;
48789;SDS011;41718;51.980;5.734;2024-03-02T00:29:36;1.27;;;1.05;;
48789;SDS011;41718;51.980;5.734;2024-03-02T00:34:38;2.80;;;1.35;;
48789;SDS011;41718;51.980;5.734;2024-03-02T00:39:41;1.55;;;1.00;;
48789;SDS011;41718;51.980;5.734;2024-03-02T00:44:43;3.33;;;1.08;;
48789;SDS011;41718;51.980;5.734;2024-03-02T00:49:45;1.58;;;1.27;;
48789;SDS011;41718;51.980;5.734;2024-03-02T00:54:48;2.78;;;1.13;;
48789;SDS011;41718;51.980;5.734;2024-03-02T00:59:51;0.95;;;0.80;;
48789;SDS011;41718;51.980;5.734;2024-03-02T01:04:53;1.35;;;0.95;;
48789;SDS011;41718;51.980;5.734;2024-03-02T01:09:55;1.67;;;1.10;;
48789;SDS011;41718;51.980;5.734;2024-03-02T01:14:57;3.05;;;1.10;;
48789;SDS011;41718;51.980;5.734;2024-03-02T01:19:59;1.40;;;0.88;;
48789;SDS011;41718;51.980;5.734;2024-03-02T01:25:01;0.82;;;0.75;;
48789;SDS011;41718;51.980;5.734;2024-03-02T01:30:04;2.45;;;0.50;;
48789;SDS011;41718;51.980;5.734;2024-03-02T01:35:07;0.77;;;0.60;;
48789;SDS011;41718;51.980;5.734;2024-03-02T01:40:10;0.50;;;0.30;;
48789;SDS011;41718;51.980;5.734;2024-03-02T01:45:12;0.65;;;0.47;;
48789;SDS011;41718;51.980;5.734;2024-03-02T01:50:15;0.22;;;0.22;;
48789;SDS011;41718;51.980;5.734;2024-03-02T01:55:17;0.40;;;0.40;;
48789;SDS011;41718;51.980;5.734;2024-03-02T02:00:20;0.30;;;0.30;;
48789;SDS011;41718;51.980;5.734;2024-03-02T02:05:23;0.43;;;0.40;;
48789;SDS011;41718;51.980;5.734;2024-03-02T02:10:25;0.30;;;0.30;;
48789;SDS011;41718;51.980;5.734;2024-03-02T02:15:28;0.40;;;0.38;;
48789;SDS011;41718;51.980;5.734;2024-03-02T02:20:31;0.50;;;0.50;;
48789;SDS011;41718;51.980;5.734;2024-03-02T02:25:33;0.30;;;0.30;;
48789;SDS011;41718;51.980;5.734;2024-03-02T02:30:35;0.30;;;0.30;;
48789;SDS011;41718;51.980;5.734;2024-03-02T02:35:37;0.47;;;0.40;;
48789;SDS011;41718;51.980;5.734;2024-03-02T02:40:40;2.00;;;0.60;;
48789;SDS011;41718;51.980;5.734;2024-03-02T02:45:42;0.65;;;0.50;;
48789;SDS011;41718;51.980;5.734;2024-03-02T02:50:44;0.40;;;0.38;;
48789;SDS011;41718;51.980;5.734;2024-03-02T02:55:46;0.30;;;0.30;;
48789;SDS011;41718;51.980;5.734;2024-03-02T03:00:48;0.57;;;0.40;;
48789;SDS011;41718;51.980;5.734;2024-03-02T03:05:51;0.30;;;0.30;;
48789;SDS011;41718;51.980;5.734;2024-03-02T03:10:53;0.88;;;0.50;;
48789;SDS011;41718;51.980;5.734;2024-03-02T03:15:55;0.40;;;0.40;;
48789;SDS011;41718;51.980;5.734;2024-03-02T03:20:57;0.20;;;0.20;;
48789;SDS011;41718;51.980;5.734;2024-03-02T03:25:59;0.35;;;0.32;;
48789;SDS011;41718;51.980;5.734;2024-03-02T03:31:02;0.57;;;0.57;;
48789;SDS011;41718;51.980;5.734;2024-03-02T03:36:04;3.92;;;0.50;;
48789;SDS011;41718;51.980;5.734;2024-03-02T03:41:06;0.82;;;0.50;;
48789;SDS011;41718;51.980;5.734;2024-03-02T03:46:08;0.28;;;0.25;;
48789;SDS011;41718;51.980;5.734;2024-03-02T03:51:10;1.45;;;0.65;;
48789;SDS011;41718;51.980;5.734;2024-03-02T03:56:13;0.95;;;0.70;;
48789;SDS011;41718;51.980;5.734;2024-03-02T04:01:15;1.15;;;0.30;;
48789;SDS011;41718;51.980;5.734;2024-03-02T04:06:17;3.05;;;0.50;;
48789;SDS011;41718;51.980;5.734;2024-03-02T04:11:19;0.30;;;0.30;;
48789;SDS011;41718;51.980;5.734;2024-03-02T04:16:21;0.40;;;0.40;;
48789;SDS011;41718;51.980;5.734;2024-03-02T04:21:24;0.30;;;0.30;;
48789;SDS011;41718;51.980;5.734;2024-03-02T04:26:26;0.52;;;0.40;;
48789;SDS011;41718;51.980;5.734;2024-03-02T04:31:28;0.45;;;0.43;;
48789;SDS011;41718;51.980;5.734;2024-03-02T04:36:30;0.47;;;0.30;;
48789;SDS011;41718;51.980;5.734;2024-03-02T04:41:32;0.43;;;0.43;;
48789;SDS011;41718;51.980;5.734;2024-03-02T04:46:34;0.30;;;0.30;;
48789;SDS011;41718;51.980;5.734;2024-03-02T04:51:36;0.32;;;0.32;;
48789;SDS011;41718;51.980;5.734;2024-03-02T04:56:39;0.50;;;0.45;;
48789;SDS011;41718;51.980;5.734;2024-03-02T05:06:48;1.85;;;0.60;;
48789;SDS011;41718;51.980;5.734;2024-03-02T05:11:54;0.30;;;0.30;;
48789;SDS011;41718;51.980;5.734;2024-03-02T05:17:31;1.07;;;0.60;;
48789;SDS011;41718;51.980;5.734;2024-03-02T05:22:33;0.77;;;0.60;;
48789;SDS011;41718;51.980;5.734;2024-03-02T05:27:36;1.85;;;0.30;;
48789;SDS011;41718;51.980;5.734;2024-03-02T05:32:38;0.68;;;0.38;;
48789;SDS011;41718;51.980;5.734;2024-03-02T05:37:40;1.17;;;0.50;;
48789;SDS011;41718;51.980;5.734;2024-03-02T05:42:42;0.70;;;0.70;;
48789;SDS011;41718;51.980;5.734;2024-03-02T05:47:44;1.02;;;0.60;;
48789;SDS011;41718;51.980;5.734;2024-03-02T05:52:46;1.33;;;1.23;;
48789;SDS011;41718;51.980;5.734;2024-03-02T05:57:48;1.15;;;0.60;;
48789;SDS011;41718;51.980;5.734;2024-03-02T06:03:08;1.35;;;0.60;;
48789;SDS011;41718;51.980;5.734;2024-03-02T06:08:10;1.70;;;0.43;;
48789;SDS011;41718;51.980;5.734;2024-03-02T06:13:12;0.68;;;0.50;;
48789;SDS011;41718;51.980;5.734;2024-03-02T06:18:15;0.60;;;0.50;;
48789;SDS011;41718;51.980;5.734;2024-03-02T06:23:17;0.73;;;0.68;;
48789;SDS011;41718;51.980;5.734;2024-03-02T06:28:19;0.38;;;0.38;;
48789;SDS011;41718;51.980;5.734;2024-03-02T06:33:22;0.52;;;0.45;;
48789;SDS011;41718;51.980;5.734;2024-03-02T06:38:24;1.30;;;0.43;;
48789;SDS011;41718;51.980;5.734;2024-03-02T06:43:26;0.47;;;0.47;;
48789;SDS011;41718;51.980;5.734;2024-03-02T06:48:28;2.28;;;0.65;;
48789;SDS011;41718;51.980;5.734;2024-03-02T06:53:31;0.45;;;0.43;;
48789;SDS011;41718;51.980;5.734;2024-03-02T06:58:35;0.82;;;0.70;;
48789;SDS011;41718;51.980;5.734;2024-03-02T07:03:37;0.50;;;0.50;;
48789;SDS011;41718;51.980;5.734;2024-03-02T07:08:40;3.45;;;2.63;;
48789;SDS011;41718;51.980;5.734;2024-03-02T07:13:42;1.75;;;0.50;;
48789;SDS011;41718;51.980;5.734;2024-03-02T07:18:44;0.65;;;0.40;;
48789;SDS011;41718;51.980;5.734;2024-03-02T07:23:52;0.80;;;0.55;;
48789;SDS011;41718;51.980;5.734;2024-03-02T07:28:54;1.15;;;0.50;;
48789;SDS011;41718;51.980;5.734;2024-03-02T07:33:56;0.43;;;0.43;;
48789;SDS011;41718;51.980;5.734;2024-03-02T07:38:58;1.48;;;0.80;;
48789;SDS011;41718;51.980;5.734;2024-03-02T07:44:00;3.55;;;2.10;;
48789;SDS011;41718;51.980;5.734;2024-03-02T07:49:02;1.63;;;1.52;;
48789;SDS011;41718;51.980;5.734;2024-03-02T07:54:04;3.03;;;2.35;;
48789;SDS011;41718;51.980;5.734;2024-03-02T07:59:07;3.65;;;1.23;;
48789;SDS011;41718;51.980;5.734;2024-03-02T08:04:09;1.13;;;0.93;;
48789;SDS011;41718;51.980;5.734;2024-03-02T08:09:11;1.15;;;1.13;;
48789;SDS011;41718;51.980;5.734;2024-03-02T08:14:14;2.42;;;0.73;;
48789;SDS011;41718;51.980;5.734;2024-03-02T08:19:16;4.22;;;2.13;;
48789;SDS011;41718;51.980;5.734;2024-03-02T08:24:19;1.30;;;1.10;;
48789;SDS011;41718;51.980;5.734;2024-03-02T08:29:21;0.73;;;0.73;;
48789;SDS011;41718;51.980;5.734;2024-03-02T08:34:23;1.05;;;0.68;;
48789;SDS011;41718;51.980;5.734;2024-03-02T08:39:25;3.22;;;0.90;;
48789;SDS011;41718;51.980;5.734;2024-03-02T08:44:27;0.77;;;0.77;;
48789;SDS011;41718;51.980;5.734;2024-03-02T08:49:29;0.63;;;0.55;;
48789;SDS011;41718;51.980;5.734;2024-03-02T08:54:31;3.28;;;1.25;;
48789;SDS011;41718;51.980;5.734;2024-03-02T08:59:35;2.70;;;0.70;;
48789;SDS011;41718;51.980;5.734;2024-03-02T09:04:37;4.50;;;1.00;;
48789;SDS011;41718;51.980;5.734;2024-03-02T09:09:39;1.48;;;1.38;;
48789;SDS011;41718;51.980;5.734;2024-03-02T09:14:41;0.90;;;0.90;;
48789;SDS011;41718;51.980;5.734;2024-03-02T09:19:43;1.30;;;0.80;;
48789;SDS011;41718;51.980;5.734;2024-03-02T09:24:45;2.45;;;0.70;;
48789;SDS011;41718;51.980;5.734;2024-03-02T09:29:47;2.78;;;2.38;;
48789;SDS011;41718;51.980;5.734;2024-03-02T09:34:49;1.85;;;0.90;;
48789;SDS011;41718;51.980;5.734;2024-03-02T09:39:51;1.98;;;0.70;;
48789;SDS011;41718;51.980;5.734;2024-03-02T09:44:53;3.13;;;1.17;;
48789;SDS011;41718;51.980;5.734;2024-03-02T09:49:59;6.05;;;1.77;;
48789;SDS011;41718;51.980;5.734;2024-03-02T09:55:01;2.60;;;1.00;;
48789;SDS011;41718;51.980;5.734;2024-03-02T10:00:04;3.10;;;1.02;;
48789;SDS011;41718;51.980;5.734;2024-03-02T10:05:10;0.90;;;0.70;;
48789;SDS011;41718;51.980;5.734;2024-03-02T10:10:13;0.93;;;0.90;;
48789;SDS011;41718;51.980;5.734;2024-03-02T10:15:23;1.27;;;0.50;;
48789;SDS011;41718;51.980;5.734;2024-03-02T10:20:26;1.67;;;0.60;;
48789;SDS011;41718;51.980;5.734;2024-03-02T10:25:33;3.28;;;1.00;;
48789;SDS011;41718;51.980;5.734;2024-03-02T10:30:43;1.85;;;0.82;;
48789;SDS011;41718;51.980;5.734;2024-03-02T10:35:50;0.55;;;0.43;;
48789;SDS011;41718;51.980;5.734;2024-03-02T10:40:53;1.15;;;0.70;;
48789;SDS011;41718;51.980;5.734;2024-03-02T10:45:57;2.60;;;1.10;;
48789;SDS011;41718;51.980;5.734;2024-03-02T10:50:59;0.90;;;0.63;;
48789;SDS011;41718;51.980;5.734;2024-03-02T10:56:03;1.92;;;0.65;;
48789;SDS011;41718;51.980;5.734;2024-03-02T11:01:11;3.15;;;1.52;;
48789;SDS011;41718;51.980;5.734;2024-03-02T11:06:14;2.05;;;0.80;;
48789;SDS011;41718;51.980;5.734;2024-03-02T11:11:19;6.40;;;0.70;;
48789;SDS011;41718;51.980;5.734;2024-03-02T11:16:29;0.50;;;0.50;;
48789;SDS011;41718;51.980;5.734;2024-03-02T11:21:37;5.47;;;0.70;;
48789;SDS011;41718;51.980;5.734;2024-03-02T11:26:41;2.65;;;0.75;;
48789;SDS011;41718;51.980;5.734;2024-03-02T11:31:59;0.68;;;0.63;;
48789;SDS011;41718;51.980;5.734;2024-03-02T11:37:04;2.50;;;0.82;;
48789;SDS011;41718;51.980;5.734;2024-03-02T11:42:06;1.38;;;1.02;;
48789;SDS011;41718;51.980;5.734;2024-03-02T11:47:13;1.50;;;1.40;;
48789;SDS011;41718;51.980;5.734;2024-03-02T11:52:19;1.73;;;0.70;;
48789;SDS011;41718;51.980;5.734;2024-03-02T11:57:22;4.70;;;0.88;;
48789;SDS011;41718;51.980;5.734;2024-03-02T12:02:24;1.38;;;0.63;;
48789;SDS011;41718;51.980;5.734;2024-03-02T12:07:26;2.50;;;0.57;;
48789;SDS011;41718;51.980;5.734;2024-03-02T12:12:28;3.75;;;1.45;;
48789;SDS011;41718;51.980;5.734;2024-03-02T12:17:30;2.50;;;0.75;;
48789;SDS011;41718;51.980;5.734;2024-03-02T12:22:35;1.20;;;1.08;;
48789;SDS011;41718;51.980;5.734;2024-03-02T12:27:38;2.05;;;0.65;;
48789;SDS011;41718;51.980;5.734;2024-03-02T12:32:41;2.45;;;0.88;;
48789;SDS011;41718;51.980;5.734;2024-03-02T12:42:53;1.25;;;0.80;;
48789;SDS011;41718;51.980;5.734;2024-03-02T12:47:55;1.33;;;0.90;;
48789;SDS011;41718;51.980;5.734;2024-03-02T12:52:57;2.15;;;0.57;;
48789;SDS011;41718;51.980;5.734;2024-03-02T12:57:59;5.35;;;1.20;;
48789;SDS011;41718;51.980;5.734;2024-03-02T13:03:04;2.75;;;0.60;;
48789;SDS011;41718;51.980;5.734;2024-03-02T13:08:08;1.55;;;0.57;;
48789;SDS011;41718;51.980;5.734;2024-03-02T13:13:10;1.58;;;0.70;;
48789;SDS011;41718;51.980;5.734;2024-03-02T13:18:18;1.17;;;0.90;;
48789;SDS011;41718;51.980;5.734;2024-03-02T13:23:21;2.80;;;1.50;;
48789;SDS011;41718;51.980;5.734;2024-03-02T13:28:28;1.90;;;1.00;;
48789;SDS011;41718;51.980;5.734;2024-03-02T13:33:31;2.05;;;1.60;;
48789;SDS011;41718;51.980;5.734;2024-03-02T13:38:35;2.85;;;1.92;;
48789;SDS011;41718;51.980;5.734;2024-03-02T13:43:38;5.85;;;4.93;;
48789;SDS011;41718;51.980;5.734;2024-03-02T13:48:49;2.78;;;1.60;;
48789;SDS011;41718;51.980;5.734;2024-03-02T13:53:56;2.17;;;1.73;;
48789;SDS011;41718;51.980;5.734;2024-03-02T13:58:58;6.13;;;2.35;;
48789;SDS011;41718;51.980;5.734;2024-03-02T14:04:01;2.58;;;1.10;;
48789;SDS011;41718;51.980;5.734;2024-03-02T14:09:06;3.40;;;1.42;;
48789;SDS011;41718;51.980;5.734;2024-03-02T14:14:10;3.90;;;2.42;;
48789;SDS011;41718;51.980;5.734;2024-03-02T14:19:14;3.63;;;0.70;;
48789;SDS011;41718;51.980;5.734;2024-03-02T14:24:20;1.90;;;1.73;;
48789;SDS011;41718;51.980;5.734;2024-03-02T14:29:35;2.92;;;0.95;;
48789;SDS011;41718;51.980;5.734;2024-03-02T14:34:44;2.08;;;1.13;;
48789;SDS011;41718;51.980;5.734;2024-03-02T14:39:54;6.00;;;2.05;;
48789;SDS011;41718;51.980;5.734;2024-03-02T14:44:58;1.48;;;0.65;;
48789;SDS011;41718;51.980;5.734;2024-03-02T14:50:06;1.33;;;0.82;;
48789;SDS011;41718;51.980;5.734;2024-03-02T14:55:23;0.40;;;0.40;;
48789;SDS011;41718;51.980;5.734;2024-03-02T15:00:27;4.70;;;0.80;;
48789;SDS011;41718;51.980;5.734;2024-03-02T15:05:32;1.60;;;0.50;;
48789;SDS011;41718;51.980;5.734;2024-03-02T15:10:40;2.08;;;0.93;;
48789;SDS011;41718;51.980;5.734;2024-03-02T15:15:45;3.03;;;0.53;;
48789;SDS011;41718;51.980;5.734;2024-03-02T15:20:48;2.17;;;0.80;;
48789;SDS011;41718;51.980;5.734;2024-03-02T15:25:50;2.92;;;1.50;;
48789;SDS011;41718;51.980;5.734;2024-03-02T15:30:52;1.30;;;0.65;;
48789;SDS011;41718;51.980;5.734;2024-03-02T15:36:00;1.58;;;0.75;;
48789;SDS011;41718;51.980;5.734;2024-03-02T15:41:03;0.83;;;0.70;;
48789;SDS011;41718;51.980;5.734;2024-03-02T15:46:05;1.48;;;1.20;;
48789;SDS011;41718;51.980;5.734;2024-03-02T15:51:08;3.03;;;0.80;;
48789;SDS011;41718;51.980;5.734;2024-03-02T15:56:10;2.58;;;1.17;;
48789;SDS011;41718;51.980;5.734;2024-03-02T16:01:12;3.65;;;1.55;;
48789;SDS011;41718;51.980;5.734;2024-03-02T16:06:15;2.13;;;1.08;;
48789;SDS011;41718;51.980;5.734;2024-03-02T16:11:16;2.03;;;1.20;;
48789;SDS011;41718;51.980;5.734;2024-03-02T16:16:19;1.95;;;1.63;;
48789;SDS011;41718;51.980;5.734;2024-03-02T16:21:21;2.70;;;1.17;;
48789;SDS011;41718;51.980;5.734;2024-03-02T16:26:26;2.78;;;2.53;;
48789;SDS011;41718;51.980;5.734;2024-03-02T16:31:28;2.08;;;0.95;;
48789;SDS011;41718;51.980;5.734;2024-03-02T16:36:30;4.70;;;1.45;;
48789;SDS011;41718;51.980;5.734;2024-03-02T16:41:35;2.80;;;0.98;;
48789;SDS011;41718;51.980;5.734;2024-03-02T16:46:41;2.33;;;1.17;;
48789;SDS011;41718;51.980;5.734;2024-03-02T16:51:44;4.15;;;0.90;;
48789;SDS011;41718;51.980;5.734;2024-03-02T16:56:47;1.23;;;0.82;;
48789;SDS011;41718;51.980;5.734;2024-03-02T17:01:49;1.75;;;1.30;;
48789;SDS011;41718;51.980;5.734;2024-03-02T17:06:51;1.10;;;1.02;;
48789;SDS011;41718;51.980;5.734;2024-03-02T17:11:54;3.80;;;1.75;;
48789;SDS011;41718;51.980;5.734;2024-03-02T17:16:56;2.88;;;1.95;;
48789;SDS011;41718;51.980;5.734;2024-03-02T17:21:58;1.15;;;1.00;;
48789;SDS011;41718;51.980;5.734;2024-03-02T17:27:00;1.00;;;1.00;;
48789;SDS011;41718;51.980;5.734;2024-03-02T17:32:02;3.92;;;1.52;;
48789;SDS011;41718;51.980;5.734;2024-03-02T17:37:04;11.98;;;5.43;;
48789;SDS011;41718;51.980;5.734;2024-03-02T17:42:06;3.10;;;2.55;;
48789;SDS011;41718;51.980;5.734;2024-03-02T17:47:08;8.88;;;4.20;;
48789;SDS011;41718;51.980;5.734;2024-03-02T17:52:10;5.60;;;1.98;;
48789;SDS011;41718;51.980;5.734;2024-03-02T17:57:13;2.80;;;2.17;;
48789;SDS011;41718;51.980;5.734;2024-03-02T18:02:15;2.17;;;1.33;;
48789;SDS011;41718;51.980;5.734;2024-03-02T18:07:17;1.52;;;1.10;;
48789;SDS011;41718;51.980;5.734;2024-03-02T18:12:19;2.83;;;1.35;;
48789;SDS011;41718;51.980;5.734;2024-03-02T18:17:21;1.67;;;1.40;;
48789;SDS011;41718;51.980;5.734;2024-03-02T18:22:23;2.60;;;1.50;;
48789;SDS011;41718;51.980;5.734;2024-03-02T18:27:25;2.25;;;1.67;;
48789;SDS011;41718;51.980;5.734;2024-03-02T18:32:27;2.75;;;1.92;;
48789;SDS011;41718;51.980;5.734;2024-03-02T18:37:29;2.75;;;2.28;;
48789;SDS011;41718;51.980;5.734;2024-03-02T18:42:31;2.25;;;1.52;;
48789;SDS011;41718;51.980;5.734;2024-03-02T18:47:36;1.30;;;1.20;;
48789;SDS011;41718;51.980;5.734;2024-03-02T18:52:39;1.25;;;1.15;;
48789;SDS011;41718;51.980;5.734;2024-03-02T18:57:41;3.90;;;1.60;;
48789;SDS011;41718;51.980;5.734;2024-03-02T19:02:43;1.38;;;1.27;;
48789;SDS011;41718;51.980;5.734;2024-03-02T19:07:46;2.22;;;1.70;;
48789;SDS011;41718;51.980;5.734;2024-03-02T19:12:48;1.63;;;1.50;;
48789;SDS011;41718;51.980;5.734;2024-03-02T19:17:50;4.35;;;2.45;;
48789;SDS011;41718;51.980;5.734;2024-03-02T19:22:53;1.60;;;1.50;;
48789;SDS011;41718;51.980;5.734;2024-03-02T19:28:01;2.00;;;1.80;;
48789;SDS011;41718;51.980;5.734;2024-03-02T19:33:13;2.22;;;1.55;;
48789;SDS011;41718;51.980;5.734;2024-03-02T19:43:33;1.63;;;1.30;;
48789;SDS011;41718;51.980;5.734;2024-03-02T19:48:43;1.85;;;1.60;;
48789;SDS011;41718;51.980;5.734;2024-03-02T19:53:45;3.40;;;1.55;;
48789;SDS011;41718;51.980;5.734;2024-03-02T19:58:50;3.00;;;1.27;;
48789;SDS011;41718;51.980;5.734;2024-03-02T20:03:59;2.60;;;1.60;;
48789;SDS011;41718;51.980;5.734;2024-03-02T20:09:01;2.10;;;1.50;;
48789;SDS011;41718;51.980;5.734;2024-03-02T20:14:17;8.98;;;4.68;;
48789;SDS011;41718;51.980;5.734;2024-03-02T20:19:45;3.00;;;2.00;;
48789;SDS011;41718;51.980;5.734;2024-03-02T20:30:21;2.88;;;1.77;;
48789;SDS011;41718;51.980;5.734;2024-03-02T20:35:32;3.70;;;2.20;;
48789;SDS011;41718;51.980;5.734;2024-03-02T20:40:36;3.17;;;2.30;;
48789;SDS011;41718;51.980;5.734;2024-03-02T20:45:39;3.13;;;2.13;;
48789;SDS011;41718;51.980;5.734;2024-03-02T20:50:43;3.85;;;2.30;;
48789;SDS011;41718;51.980;5.734;2024-03-02T20:56:01;3.78;;;2.75;;
48789;SDS011;41718;51.980;5.734;2024-03-02T21:01:11;2.90;;;2.30;;
48789;SDS011;41718;51.980;5.734;2024-03-02T21:06:26;7.57;;;3.92;;
48789;SDS011;41718;51.980;5.734;2024-03-02T21:11:36;4.68;;;3.92;;
48789;SDS011;41718;51.980;5.734;2024-03-02T21:16:44;10.82;;;6.38;;
48789;SDS011;41718;51.980;5.734;2024-03-02T21:22:04;23.10;;;12.43;;
48789;SDS011;41718;51.980;5.734;2024-03-02T21:27:16;47.75;;;19.17;;
48789;SDS011;41718;51.980;5.734;2024-03-02T21:32:54;10.40;;;5.45;;
48789;SDS011;41718;51.980;5.734;2024-03-02T21:38:07;5.38;;;3.05;;
48789;SDS011;41718;51.980;5.734;2024-03-02T21:43:22;2.78;;;2.22;;
48789;SDS011;41718;51.980;5.734;2024-03-02T21:48:49;3.17;;;2.25;;
48789;SDS011;41718;51.980;5.734;2024-03-02T21:54:08;2.33;;;1.67;;
48789;SDS011;41718;51.980;5.734;2024-03-02T21:59:11;2.40;;;2.20;;
48789;SDS011;41718;51.980;5.734;2024-03-02T22:04:16;2.05;;;1.85;;
48789;SDS011;41718;51.980;5.734;2024-03-02T22:09:23;2.95;;;1.92;;
48789;SDS011;41718;51.980;5.734;2024-03-02T22:14:32;2.03;;;1.87;;
48789;SDS011;41718;51.980;5.734;2024-03-02T22:19:41;4.53;;;2.40;;
48789;SDS011;41718;51.980;5.734;2024-03-02T22:24:50;2.95;;;1.90;;
48789;SDS011;41718;51.980;5.734;2024-03-02T22:30:25;2.90;;;2.47;;
48789;SDS011;41718;51.980;5.734;2024-03-02T22:35:30;4.93;;;2.50;;
48789;SDS011;41718;51.980;5.734;2024-03-02T22:40:38;2.90;;;1.88;;
48789;SDS011;41718;51.980;5.734;2024-03-02T22:45:46;3.13;;;2.45;;
48789;SDS011;41718;51.980;5.734;2024-03-02T22:51:28;3.75;;;2.33;;
48789;SDS011;41718;51.980;5.734;2024-03-02T22:56:35;5.60;;;2.35;;
48789;SDS011;41718;51.980;5.734;2024-03-02T23:01:41;2.75;;;1.80;;
48789;SDS011;41718;51.980;5.734;2024-03-02T23:06:46;2.80;;;2.05;;
48789;SDS011;41718;51.980;5.734;2024-03-02T23:11:52;3.28;;;2.38;;
48789;SDS011;41718;51.980;5.734;2024-03-02T23:17:03;2.97;;;2.20;;
48789;SDS011;41718;51.980;5.734;2024-03-02T23:22:09;2.03;;;1.60;;
48789;SDS011;41718;51.980;5.734;2024-03-02T23:27:14;4.82;;;2.67;;
48789;SDS011;41718;51.980;5.734;2024-03-02T23:32:20;2.43;;;2.07;;
48789;SDS011;41718;51.980;5.734;2024-03-02T23:37:22;3.47;;;2.05;;
48789;SDS011;41718;51.980;5.734;2024-03-02T23:42:24;2.78;;;2.20;;
48789;SDS011;41718;51.980;5.734;2024-03-02T23:47:28;3.75;;;2.55;;
48789;SDS011;41718;51.980;5.734;2024-03-02T23:52:30;5.47;;;2.47;;
48789;SDS011;41718;51.980;5.734;2024-03-02T23:57:32;4.07;;;3.13;;
